Pagrindinis puslapis
METAR-TAF:

METAR-TAF

Oro uostai :

Fodža, Italija

platuma: 41-25-58N, ilguma: 015-32-06E, Aukštis: 81 m

Dabartinis oras

Ataskaita buvo paskelbta 35 minutes, ne 12:50 UTC
Vėjas 7 kt iš Šiaurės/Šiaurės Vakarų, svyruoja nuo Šiaurės Vakarų ir Šiaurės
Temperatūra 19°C
Drėgmė 40%
Slėgis 1030 hPa
Matomumas 10 km arba daugiau
nėra debesų žemiau 1500 m ir nėra kamuolinių lietaus debesų

METAR: LIBF 251250Z 34007KT 310V010 CAVOK 19/05 Q1030

Laikas: 14:25 (13:25 UTC)


TAF: trūkstamas

Orai ataskaitas ir orų prognozės (METAR, TAF).

turimą stotys yra geltonos ir raudonos taškus žemėlapyje.

Perkelti pele per norėdami pamatyti stoties vardą.

Tada spustelėkite, norėdami matyti oro stebėjimo ir prognozės.

Norėdami pakeisti žemėlapį: spustelėkite ant žalios mygtukų su juodo kryžiaus žemyn,; žalią mygtuką su brūkšneliu, jei norite nutolinti; arba žalių rodyklių gretimoms žemėlapius.


METAR-TAF: